DTTJ Airport Information

Runway Information
Runway 09 Length 10171 ft width 148 ft
Elevation 9 ft Threshold ft Heading 88
Runway 27 Length 10171 ft Width 148 ft
Elevation 18 ft Threshold ft Heading 268
Airport Frequencies
Type APP Name DJERBA APP Frequency 120.3 MHZ
Type TWR Name DJERBA TWR Frequency 118.15 MHZ
Airport Navaids
Type VOR-DME Name Djerba Frequency 112200 KHZ
Airport Weather Information & NOTAM
ADDS - METARS form results

(0910 UTC 03 July 2022)
Data provider http://aviationweather.gov/metar/data/
 
METAR text: DTTJ 030900Z 34006KT 310V030 CAVOK 30/22 Q1016 NOSIG
Conditions at: DTTJ (DJERBA MELLITA , TN) observed 0900 UTC 03 July 2022
Temperature: 30.0°C (86°F)
Dewpoint: 22.0°C (72°F) [RH = 62%]
Pressure (altimeter): 30.00 inches Hg (1016.0 mb)
Winds: from the NNW (340 degrees) at 7 MPH (6 knots; 3.1 m/s)
Visibility: 6 or more miles (10+ km)
Ceiling: ceiling and visibility are OK
Clouds: unknown
Weather: no significant weather observed at this time

METAR text: DTTJ 030830Z 34007KT 310V020 CAVOK 30/21 Q1016 NOSIG
Conditions at: DTTJ (DJERBA MELLITA , TN) observed 0830 UTC 03 July 2022
Temperature: 30.0°C (86°F)
Dewpoint: 21.0°C (70°F) [RH = 59%]
Pressure (altimeter): 30.00 inches Hg (1016.0 mb)
Winds: from the NNW (340 degrees) at 8 MPH (7 knots; 3.6 m/s)
Visibility: 6 or more miles (10+ km)
Ceiling: ceiling and visibility are OK
Clouds: unknown
Weather: no significant weather observed at this time

Forecast for: DTTJ (DJERBA MELLITA , TN)
Text: TAF DTTJ 030500Z 0306/0406 01008KT CAVOK
Forecast period: 0600 to 1600 UTC 03 July 2022
Forecast type: FROM: standard forecast or significant change
Winds: from the N (10 degrees) at 9 MPH (8 knots; 4.1 m/s)
Visibility: 6 or more miles (10+ km)
Ceiling: unknown
Clouds: missing
Weather: NSW  (no significant weather)
Text: BECMG 0316/0318 07010KT
Forecast period: 1600 UTC 03 July 2022 to 0300 UTC 04 July 2022
Forecast type: BECOMING: Conditions expected to become as follows by 1800 UTC 03 July 2022
Winds: from the ENE (70 degrees) at 12 MPH (10 knots; 5.1 m/s)
Visibility: 6 or more miles (10+ km)
Ceiling: unknown
Clouds: missing
Weather: NSW  (no significant weather)
Text: BECMG 0403/0405 13005KT
Forecast period: 0300 to 0600 UTC 04 July 2022
Forecast type: BECOMING: Conditions expected to become as follows by 0500 UTC 04 July 2022
Winds: from the SE (130 degrees) at 6 MPH (5 knots; 2.6 m/s)
Visibility: 6 or more miles (10+ km)
Ceiling: unknown
Clouds: missing
Weather: NSW  (no significant weather)